sensor_id;sensor_type;location;lat;lon;timestamp;temperature;humidity
60309;DHT22;50313;52.894;6.492;2023-08-21T00:01:15;14.60;99.90
60309;DHT22;50313;52.894;6.492;2023-08-21T00:03:41;14.60;99.90
60309;DHT22;50313;52.894;6.492;2023-08-21T00:06:07;14.60;99.90
60309;DHT22;50313;52.894;6.492;2023-08-21T00:08:32;14.60;99.90
60309;DHT22;50313;52.894;6.492;2023-08-21T00:10:58;14.50;99.90
60309;DHT22;50313;52.894;6.492;2023-08-21T00:13:24;14.50;99.90
60309;DHT22;50313;52.894;6.492;2023-08-21T00:15:50;14.40;99.90
60309;DHT22;50313;52.894;6.492;2023-08-21T00:18:16;14.40;99.90
60309;DHT22;50313;52.894;6.492;2023-08-21T00:20:42;14.40;99.90
60309;DHT22;50313;52.894;6.492;2023-08-21T00:23:08;14.40;99.90
60309;DHT22;50313;52.894;6.492;2023-08-21T00:25:35;14.40;99.90
60309;DHT22;50313;52.894;6.492;2023-08-21T00:28:00;14.40;99.90
60309;DHT22;50313;52.894;6.492;2023-08-21T00:30:26;14.40;99.90
60309;DHT22;50313;52.894;6.492;2023-08-21T00:32:52;14.40;99.90
60309;DHT22;50313;52.894;6.492;2023-08-21T00:35:18;14.40;99.90
60309;DHT22;50313;52.894;6.492;2023-08-21T00:37:44;14.30;99.90
60309;DHT22;50313;52.894;6.492;2023-08-21T00:40:10;14.20;99.90
60309;DHT22;50313;52.894;6.492;2023-08-21T00:42:36;14.10;99.90
60309;DHT22;50313;52.894;6.492;2023-08-21T00:45:02;14.10;99.90
60309;DHT22;50313;52.894;6.492;2023-08-21T00:47:29;14.10;99.90
60309;DHT22;50313;52.894;6.492;2023-08-21T00:49:55;14.10;99.90
60309;DHT22;50313;52.894;6.492;2023-08-21T00:52:21;14.10;99.90
60309;DHT22;50313;52.894;6.492;2023-08-21T00:54:47;14.10;99.90
60309;DHT22;50313;52.894;6.492;2023-08-21T00:57:14;14.10;99.90
60309;DHT22;50313;52.894;6.492;2023-08-21T00:59:40;14.00;99.90
60309;DHT22;50313;52.894;6.492;2023-08-21T01:02:06;14.00;99.90
60309;DHT22;50313;52.894;6.492;2023-08-21T01:04:32;14.00;99.90
60309;DHT22;50313;52.894;6.492;2023-08-21T01:06:58;13.90;99.90
60309;DHT22;50313;52.894;6.492;2023-08-21T01:09:36;13.90;99.90
60309;DHT22;50313;52.894;6.492;2023-08-21T01:12:25;13.90;99.90
60309;DHT22;50313;52.894;6.492;2023-08-21T01:14:59;14.00;99.90
60309;DHT22;50313;52.894;6.492;2023-08-21T01:17:26;13.90;99.90
60309;DHT22;50313;52.894;6.492;2023-08-21T01:19:53;13.90;99.90
60309;DHT22;50313;52.894;6.492;2023-08-21T01:22:19;13.80;99.90
60309;DHT22;50313;52.894;6.492;2023-08-21T01:24:45;13.80;99.90
60309;DHT22;50313;52.894;6.492;2023-08-21T01:27:12;13.80;99.90
60309;DHT22;50313;52.894;6.492;2023-08-21T01:29:39;13.70;99.90
60309;DHT22;50313;52.894;6.492;2023-08-21T01:32:23;13.70;99.90
60309;DHT22;50313;52.894;6.492;2023-08-21T01:34:53;13.70;99.90
60309;DHT22;50313;52.894;6.492;2023-08-21T01:37:21;13.70;99.90
60309;DHT22;50313;52.894;6.492;2023-08-21T01:39:47;13.60;99.90
60309;DHT22;50313;52.894;6.492;2023-08-21T01:42:13;13.60;99.90
60309;DHT22;50313;52.894;6.492;2023-08-21T01:44:39;13.60;99.90
60309;DHT22;50313;52.894;6.492;2023-08-21T01:47:05;13.50;99.90
60309;DHT22;50313;52.894;6.492;2023-08-21T01:49:31;13.60;99.90
60309;DHT22;50313;52.894;6.492;2023-08-21T01:51:57;13.50;99.90
60309;DHT22;50313;52.894;6.492;2023-08-21T01:54:23;13.40;99.90
60309;DHT22;50313;52.894;6.492;2023-08-21T01:56:48;13.50;99.90
60309;DHT22;50313;52.894;6.492;2023-08-21T01:59:16;13.40;99.90
60309;DHT22;50313;52.894;6.492;2023-08-21T02:01:42;13.30;99.90
60309;DHT22;50313;52.894;6.492;2023-08-21T02:04:08;13.20;99.90
60309;DHT22;50313;52.894;6.492;2023-08-21T02:06:34;13.20;99.90
60309;DHT22;50313;52.894;6.492;2023-08-21T02:09:00;13.30;99.90
60309;DHT22;50313;52.894;6.492;2023-08-21T02:11:26;13.30;99.90
60309;DHT22;50313;52.894;6.492;2023-08-21T02:13:51;13.30;99.90
60309;DHT22;50313;52.894;6.492;2023-08-21T02:16:17;13.30;99.90
60309;DHT22;50313;52.894;6.492;2023-08-21T02:18:43;13.30;99.90
60309;DHT22;50313;52.894;6.492;2023-08-21T02:21:09;13.30;99.90
60309;DHT22;50313;52.894;6.492;2023-08-21T02:23:35;13.20;99.90
60309;DHT22;50313;52.894;6.492;2023-08-21T02:26:01;13.10;99.90
60309;DHT22;50313;52.894;6.492;2023-08-21T02:28:27;13.10;99.90
60309;DHT22;50313;52.894;6.492;2023-08-21T02:30:53;13.10;99.90
60309;DHT22;50313;52.894;6.492;2023-08-21T02:33:19;13.00;99.90
60309;DHT22;50313;52.894;6.492;2023-08-21T02:35:44;13.00;99.90
60309;DHT22;50313;52.894;6.492;2023-08-21T02:38:10;13.00;99.90
60309;DHT22;50313;52.894;6.492;2023-08-21T02:40:36;12.90;99.90
60309;DHT22;50313;52.894;6.492;2023-08-21T02:43:02;12.80;99.90
60309;DHT22;50313;52.894;6.492;2023-08-21T02:45:28;12.80;99.90
60309;DHT22;50313;52.894;6.492;2023-08-21T02:47:54;12.80;99.90
60309;DHT22;50313;52.894;6.492;2023-08-21T02:50:19;12.90;99.90
60309;DHT22;50313;52.894;6.492;2023-08-21T02:52:45;12.90;99.90
60309;DHT22;50313;52.894;6.492;2023-08-21T02:55:11;12.90;99.90
60309;DHT22;50313;52.894;6.492;2023-08-21T02:57:37;12.90;99.90
60309;DHT22;50313;52.894;6.492;2023-08-21T03:00:03;12.80;99.90
60309;DHT22;50313;52.894;6.492;2023-08-21T03:02:29;12.80;99.90
60309;DHT22;50313;52.894;6.492;2023-08-21T03:04:55;12.70;99.90
60309;DHT22;50313;52.894;6.492;2023-08-21T03:07:21;12.70;99.90
60309;DHT22;50313;52.894;6.492;2023-08-21T03:09:48;12.70;99.90
60309;DHT22;50313;52.894;6.492;2023-08-21T03:12:14;12.70;99.90
60309;DHT22;50313;52.894;6.492;2023-08-21T03:14:40;12.70;99.90
60309;DHT22;50313;52.894;6.492;2023-08-21T03:17:07;12.70;99.90
60309;DHT22;50313;52.894;6.492;2023-08-21T03:19:32;12.70;99.90
60309;DHT22;50313;52.894;6.492;2023-08-21T03:21:58;12.60;99.90
60309;DHT22;50313;52.894;6.492;2023-08-21T03:24:24;12.60;99.90
60309;DHT22;50313;52.894;6.492;2023-08-21T03:26:50;12.60;99.90
60309;DHT22;50313;52.894;6.492;2023-08-21T03:29:16;12.70;99.90
60309;DHT22;50313;52.894;6.492;2023-08-21T03:31:41;12.70;99.90
60309;DHT22;50313;52.894;6.492;2023-08-21T03:34:07;12.60;99.90
60309;DHT22;50313;52.894;6.492;2023-08-21T03:36:34;12.60;99.90
60309;DHT22;50313;52.894;6.492;2023-08-21T03:39:02;12.60;99.90
60309;DHT22;50313;52.894;6.492;2023-08-21T03:41:29;12.50;99.90
60309;DHT22;50313;52.894;6.492;2023-08-21T03:43:55;12.60;99.90
60309;DHT22;50313;52.894;6.492;2023-08-21T03:46:21;12.60;99.90
60309;DHT22;50313;52.894;6.492;2023-08-21T03:48:47;12.60;99.90
60309;DHT22;50313;52.894;6.492;2023-08-21T03:51:12;12.70;99.90
60309;DHT22;50313;52.894;6.492;2023-08-21T03:53:38;12.50;99.90
60309;DHT22;50313;52.894;6.492;2023-08-21T03:56:04;12.60;99.90
60309;DHT22;50313;52.894;6.492;2023-08-21T03:58:32;12.50;99.90
60309;DHT22;50313;52.894;6.492;2023-08-21T04:00:58;12.50;99.90
60309;DHT22;50313;52.894;6.492;2023-08-21T04:03:23;12.50;99.90
60309;DHT22;50313;52.894;6.492;2023-08-21T04:05:49;12.50;99.90
60309;DHT22;50313;52.894;6.492;2023-08-21T04:08:15;12.50;99.90
60309;DHT22;50313;52.894;6.492;2023-08-21T04:10:41;12.50;99.90
60309;DHT22;50313;52.894;6.492;2023-08-21T04:13:07;12.50;99.90
60309;DHT22;50313;52.894;6.492;2023-08-21T04:15:34;12.50;99.90
60309;DHT22;50313;52.894;6.492;2023-08-21T04:18:03;12.50;99.90
60309;DHT22;50313;52.894;6.492;2023-08-21T04:20:29;12.40;99.90
60309;DHT22;50313;52.894;6.492;2023-08-21T04:22:55;12.30;99.90
60309;DHT22;50313;52.894;6.492;2023-08-21T04:25:21;12.20;99.90
60309;DHT22;50313;52.894;6.492;2023-08-21T04:27:47;12.20;99.90
60309;DHT22;50313;52.894;6.492;2023-08-21T04:30:13;12.20;99.90
60309;DHT22;50313;52.894;6.492;2023-08-21T04:32:39;12.20;99.90
60309;DHT22;50313;52.894;6.492;2023-08-21T04:35:05;12.20;99.90
60309;DHT22;50313;52.894;6.492;2023-08-21T04:37:33;12.10;99.90
60309;DHT22;50313;52.894;6.492;2023-08-21T04:39:59;12.10;99.90
60309;DHT22;50313;52.894;6.492;2023-08-21T04:42:25;12.20;99.90
60309;DHT22;50313;52.894;6.492;2023-08-21T04:44:51;12.30;99.90
60309;DHT22;50313;52.894;6.492;2023-08-21T04:47:27;12.30;99.90
60309;DHT22;50313;52.894;6.492;2023-08-21T04:49:54;12.30;99.90
60309;DHT22;50313;52.894;6.492;2023-08-21T04:52:20;12.30;99.90
60309;DHT22;50313;52.894;6.492;2023-08-21T04:54:49;12.20;99.90
60309;DHT22;50313;52.894;6.492;2023-08-21T04:57:16;12.30;99.90
60309;DHT22;50313;52.894;6.492;2023-08-21T04:59:43;12.30;99.90
60309;DHT22;50313;52.894;6.492;2023-08-21T05:02:09;12.40;99.90
60309;DHT22;50313;52.894;6.492;2023-08-21T05:04:39;12.40;99.90
60309;DHT22;50313;52.894;6.492;2023-08-21T05:07:05;12.50;99.90
60309;DHT22;50313;52.894;6.492;2023-08-21T05:09:32;12.50;99.90
60309;DHT22;50313;52.894;6.492;2023-08-21T05:11:58;12.50;99.90
60309;DHT22;50313;52.894;6.492;2023-08-21T05:14:24;12.50;99.90
60309;DHT22;50313;52.894;6.492;2023-08-21T05:16:50;12.50;99.90
60309;DHT22;50313;52.894;6.492;2023-08-21T05:19:16;12.50;99.90
60309;DHT22;50313;52.894;6.492;2023-08-21T05:21:43;12.60;99.90
60309;DHT22;50313;52.894;6.492;2023-08-21T05:24:09;12.70;99.90
60309;DHT22;50313;52.894;6.492;2023-08-21T05:26:36;12.80;99.90
60309;DHT22;50313;52.894;6.492;2023-08-21T05:29:02;12.80;99.90
60309;DHT22;50313;52.894;6.492;2023-08-21T05:31:28;12.90;99.90
60309;DHT22;50313;52.894;6.492;2023-08-21T05:33:54;12.90;99.90
60309;DHT22;50313;52.894;6.492;2023-08-21T05:36:20;13.00;99.90
60309;DHT22;50313;52.894;6.492;2023-08-21T05:38:46;13.10;99.90
60309;DHT22;50313;52.894;6.492;2023-08-21T05:41:17;13.10;99.90
60309;DHT22;50313;52.894;6.492;2023-08-21T05:43:42;13.20;99.90
60309;DHT22;50313;52.894;6.492;2023-08-21T05:46:08;13.20;99.90
60309;DHT22;50313;52.894;6.492;2023-08-21T05:48:35;13.30;99.90
60309;DHT22;50313;52.894;6.492;2023-08-21T05:51:00;13.40;99.90
60309;DHT22;50313;52.894;6.492;2023-08-21T05:53:26;13.50;99.90
60309;DHT22;50313;52.894;6.492;2023-08-21T05:55:53;13.60;99.90
60309;DHT22;50313;52.894;6.492;2023-08-21T05:58:19;13.70;99.90
60309;DHT22;50313;52.894;6.492;2023-08-21T06:00:46;13.80;99.90
60309;DHT22;50313;52.894;6.492;2023-08-21T06:03:13;13.90;99.90
60309;DHT22;50313;52.894;6.492;2023-08-21T06:05:39;14.00;99.90
60309;DHT22;50313;52.894;6.492;2023-08-21T06:08:05;14.10;99.90
60309;DHT22;50313;52.894;6.492;2023-08-21T06:10:33;14.20;99.90
60309;DHT22;50313;52.894;6.492;2023-08-21T06:12:59;14.30;99.90
60309;DHT22;50313;52.894;6.492;2023-08-21T06:15:25;14.40;99.90
60309;DHT22;50313;52.894;6.492;2023-08-21T06:17:51;14.50;99.90
60309;DHT22;50313;52.894;6.492;2023-08-21T06:20:17;14.60;99.90
60309;DHT22;50313;52.894;6.492;2023-08-21T06:22:45;14.70;99.90
60309;DHT22;50313;52.894;6.492;2023-08-21T06:25:11;14.80;99.90
60309;DHT22;50313;52.894;6.492;2023-08-21T06:27:37;14.90;99.90
60309;DHT22;50313;52.894;6.492;2023-08-21T06:30:03;15.00;99.90
60309;DHT22;50313;52.894;6.492;2023-08-21T06:32:29;15.30;99.90
60309;DHT22;50313;52.894;6.492;2023-08-21T06:34:55;15.40;99.90
60309;DHT22;50313;52.894;6.492;2023-08-21T06:37:21;15.50;99.90
60309;DHT22;50313;52.894;6.492;2023-08-21T06:39:47;15.60;99.90
60309;DHT22;50313;52.894;6.492;2023-08-21T06:42:12;15.80;99.90
60309;DHT22;50313;52.894;6.492;2023-08-21T06:44:39;15.90;99.90
60309;DHT22;50313;52.894;6.492;2023-08-21T06:47:05;16.00;99.90
60309;DHT22;50313;52.894;6.492;2023-08-21T06:49:31;16.20;99.90
60309;DHT22;50313;52.894;6.492;2023-08-21T06:51:58;16.30;99.90
60309;DHT22;50313;52.894;6.492;2023-08-21T06:54:23;16.40;99.90
60309;DHT22;50313;52.894;6.492;2023-08-21T06:56:49;16.50;99.90
60309;DHT22;50313;52.894;6.492;2023-08-21T06:59:15;16.70;99.90
60309;DHT22;50313;52.894;6.492;2023-08-21T07:01:41;16.80;99.90
60309;DHT22;50313;52.894;6.492;2023-08-21T07:04:07;16.90;99.90
60309;DHT22;50313;52.894;6.492;2023-08-21T07:06:33;17.00;99.90
60309;DHT22;50313;52.894;6.492;2023-08-21T07:08:58;17.20;99.90
60309;DHT22;50313;52.894;6.492;2023-08-21T07:11:24;17.30;99.90
60309;DHT22;50313;52.894;6.492;2023-08-21T07:13:50;17.40;99.90
60309;DHT22;50313;52.894;6.492;2023-08-21T07:16:16;17.60;99.90
60309;DHT22;50313;52.894;6.492;2023-08-21T07:18:42;17.70;99.90
60309;DHT22;50313;52.894;6.492;2023-08-21T07:21:08;17.90;99.90
60309;DHT22;50313;52.894;6.492;2023-08-21T07:23:34;18.00;99.90
60309;DHT22;50313;52.894;6.492;2023-08-21T07:26:01;18.20;99.90
60309;DHT22;50313;52.894;6.492;2023-08-21T07:28:27;18.30;99.90
60309;DHT22;50313;52.894;6.492;2023-08-21T07:30:57;18.40;99.90
60309;DHT22;50313;52.894;6.492;2023-08-21T07:33:27;18.50;99.90
60309;DHT22;50313;52.894;6.492;2023-08-21T07:36:05;18.60;99.90
60309;DHT22;50313;52.894;6.492;2023-08-21T07:38:32;18.70;99.90
60309;DHT22;50313;52.894;6.492;2023-08-21T07:41:06;18.90;99.90
60309;DHT22;50313;52.894;6.492;2023-08-21T07:43:33;19.00;99.90
60309;DHT22;50313;52.894;6.492;2023-08-21T07:46:06;19.10;99.90
60309;DHT22;50313;52.894;6.492;2023-08-21T07:48:32;19.20;70.50
60309;DHT22;50313;52.894;6.492;2023-08-21T07:50:58;19.30;43.00
60309;DHT22;50313;52.894;6.492;2023-08-21T07:53:25;19.40;1.00
60309;DHT22;50313;52.894;6.492;2023-08-21T07:55:51;19.60;1.00
60309;DHT22;50313;52.894;6.492;2023-08-21T07:58:17;19.80;1.00
60309;DHT22;50313;52.894;6.492;2023-08-21T08:00:43;19.80;1.00
60309;DHT22;50313;52.894;6.492;2023-08-21T08:03:09;19.90;1.00
60309;DHT22;50313;52.894;6.492;2023-08-21T08:05:37;20.00;1.00
60309;DHT22;50313;52.894;6.492;2023-08-21T08:08:03;20.10;1.00
60309;DHT22;50313;52.894;6.492;2023-08-21T08:10:29;20.30;1.00
60309;DHT22;50313;52.894;6.492;2023-08-21T08:12:55;20.30;99.90
60309;DHT22;50313;52.894;6.492;2023-08-21T08:15:22;20.50;99.90
60309;DHT22;50313;52.894;6.492;2023-08-21T08:17:48;20.60;99.90
60309;DHT22;50313;52.894;6.492;2023-08-21T08:20:18;20.70;99.90
60309;DHT22;50313;52.894;6.492;2023-08-21T08:22:44;20.80;16.10
60309;DHT22;50313;52.894;6.492;2023-08-21T08:25:09;20.90;99.90
60309;DHT22;50313;52.894;6.492;2023-08-21T08:27:36;21.00;34.40
60309;DHT22;50313;52.894;6.492;2023-08-21T08:30:02;21.00;1.00
60309;DHT22;50313;52.894;6.492;2023-08-21T08:32:29;21.20;1.00
60309;DHT22;50313;52.894;6.492;2023-08-21T08:34:55;21.30;1.00
60309;DHT22;50313;52.894;6.492;2023-08-21T08:37:21;21.40;1.00
60309;DHT22;50313;52.894;6.492;2023-08-21T08:39:47;21.50;1.00
60309;DHT22;50313;52.894;6.492;2023-08-21T08:42:14;21.60;99.90
60309;DHT22;50313;52.894;6.492;2023-08-21T08:44:42;21.60;99.90
60309;DHT22;50313;52.894;6.492;2023-08-21T08:47:10;21.70;99.90
60309;DHT22;50313;52.894;6.492;2023-08-21T08:49:37;21.80;99.90
60309;DHT22;50313;52.894;6.492;2023-08-21T08:52:04;22.00;99.90
60309;DHT22;50313;52.894;6.492;2023-08-21T08:54:31;22.10;99.90
60309;DHT22;50313;52.894;6.492;2023-08-21T08:56:57;22.20;99.90
60309;DHT22;50313;52.894;6.492;2023-08-21T08:59:23;22.30;99.90
60309;DHT22;50313;52.894;6.492;2023-08-21T09:01:49;22.30;99.90
60309;DHT22;50313;52.894;6.492;2023-08-21T09:04:15;22.40;99.90
60309;DHT22;50313;52.894;6.492;2023-08-21T09:06:41;22.50;99.90
60309;DHT22;50313;52.894;6.492;2023-08-21T09:09:08;22.50;99.90
60309;DHT22;50313;52.894;6.492;2023-08-21T09:11:39;22.70;99.90
60309;DHT22;50313;52.894;6.492;2023-08-21T09:14:07;22.70;99.90
60309;DHT22;50313;52.894;6.492;2023-08-21T09:16:33;22.80;99.90
60309;DHT22;50313;52.894;6.492;2023-08-21T09:18:59;23.00;99.90
60309;DHT22;50313;52.894;6.492;2023-08-21T09:21:26;23.00;99.90
60309;DHT22;50313;52.894;6.492;2023-08-21T09:24:11;23.10;99.90
60309;DHT22;50313;52.894;6.492;2023-08-21T09:26:37;23.20;99.90
60309;DHT22;50313;52.894;6.492;2023-08-21T09:29:04;23.30;99.90
60309;DHT22;50313;52.894;6.492;2023-08-21T09:31:32;23.30;99.90
60309;DHT22;50313;52.894;6.492;2023-08-21T09:34:03;23.30;99.90
60309;DHT22;50313;52.894;6.492;2023-08-21T09:36:33;23.50;99.90
60309;DHT22;50313;52.894;6.492;2023-08-21T09:38:59;23.60;99.90
60309;DHT22;50313;52.894;6.492;2023-08-21T09:41:26;23.60;95.50
60309;DHT22;50313;52.894;6.492;2023-08-21T09:43:52;23.70;94.30
60309;DHT22;50313;52.894;6.492;2023-08-21T09:46:27;23.80;90.10
60309;DHT22;50313;52.894;6.492;2023-08-21T09:48:55;24.00;96.80
60309;DHT22;50313;52.894;6.492;2023-08-21T09:51:21;24.00;72.70
60309;DHT22;50313;52.894;6.492;2023-08-21T09:53:50;24.00;38.30
60309;DHT22;50313;52.894;6.492;2023-08-21T09:56:19;23.90;16.20
60309;DHT22;50313;52.894;6.492;2023-08-21T09:58:48;24.10;15.80
60309;DHT22;50313;52.894;6.492;2023-08-21T10:01:16;24.30;22.70
60309;DHT22;50313;52.894;6.492;2023-08-21T10:03:43;24.30;24.90
60309;DHT22;50313;52.894;6.492;2023-08-21T10:06:16;24.40;23.20
60309;DHT22;50313;52.894;6.492;2023-08-21T10:08:46;24.40;15.50
60309;DHT22;50313;52.894;6.492;2023-08-21T10:11:17;24.30;13.00
60309;DHT22;50313;52.894;6.492;2023-08-21T10:13:44;24.40;11.90
60309;DHT22;50313;52.894;6.492;2023-08-21T10:16:10;24.70;16.40
60309;DHT22;50313;52.894;6.492;2023-08-21T10:18:37;24.70;13.20
60309;DHT22;50313;52.894;6.492;2023-08-21T10:21:12;24.70;10.00
60309;DHT22;50313;52.894;6.492;2023-08-21T10:23:39;24.90;14.50
60309;DHT22;50313;52.894;6.492;2023-08-21T10:26:07;24.90;9.00
60309;DHT22;50313;52.894;6.492;2023-08-21T10:28:48;24.90;7.40
60309;DHT22;50313;52.894;6.492;2023-08-21T10:33:54;24.90;2.90
60309;DHT22;50313;52.894;6.492;2023-08-21T10:39:28;25.00;1.00
60309;DHT22;50313;52.894;6.492;2023-08-21T10:42:02;25.20;1.00
60309;DHT22;50313;52.894;6.492;2023-08-21T10:49:55;25.30;1.00
60309;DHT22;50313;52.894;6.492;2023-08-21T10:52:26;25.40;1.00
60309;DHT22;50313;52.894;6.492;2023-08-21T10:54:53;25.50;1.00
60309;DHT22;50313;52.894;6.492;2023-08-21T10:57:21;25.50;1.00
60309;DHT22;50313;52.894;6.492;2023-08-21T11:00:00;25.60;1.00
60309;DHT22;50313;52.894;6.492;2023-08-21T11:02:30;25.50;1.00
60309;DHT22;50313;52.894;6.492;2023-08-21T11:04:57;25.60;1.00
60309;DHT22;50313;52.894;6.492;2023-08-21T11:07:24;25.60;1.00
60309;DHT22;50313;52.894;6.492;2023-08-21T11:09:50;25.70;1.00
60309;DHT22;50313;52.894;6.492;2023-08-21T11:12:19;25.60;1.00
60309;DHT22;50313;52.894;6.492;2023-08-21T11:14:46;25.60;1.00
60309;DHT22;50313;52.894;6.492;2023-08-21T11:17:13;25.70;1.00
60309;DHT22;50313;52.894;6.492;2023-08-21T11:19:40;25.90;1.00
60309;DHT22;50313;52.894;6.492;2023-08-21T11:22:06;25.90;1.00
60309;DHT22;50313;52.894;6.492;2023-08-21T11:24:45;26.00;1.00
60309;DHT22;50313;52.894;6.492;2023-08-21T11:27:14;26.20;1.00
60309;DHT22;50313;52.894;6.492;2023-08-21T11:29:45;26.20;1.00
60309;DHT22;50313;52.894;6.492;2023-08-21T11:32:18;25.80;1.00
60309;DHT22;50313;52.894;6.492;2023-08-21T11:34:50;25.80;1.00
60309;DHT22;50313;52.894;6.492;2023-08-21T11:37:24;25.80;1.00
60309;DHT22;50313;52.894;6.492;2023-08-21T11:39:55;26.00;1.00
60309;DHT22;50313;52.894;6.492;2023-08-21T11:42:32;26.30;1.00
60309;DHT22;50313;52.894;6.492;2023-08-21T11:45:01;26.20;1.00
60309;DHT22;50313;52.894;6.492;2023-08-21T11:47:34;26.10;1.00
60309;DHT22;50313;52.894;6.492;2023-08-21T11:50:05;26.10;1.00
60309;DHT22;50313;52.894;6.492;2023-08-21T11:52:32;26.40;1.00
60309;DHT22;50313;52.894;6.492;2023-08-21T11:54:59;26.60;1.00
60309;DHT22;50313;52.894;6.492;2023-08-21T11:57:24;26.70;1.00
60309;DHT22;50313;52.894;6.492;2023-08-21T11:59:52;26.80;1.00
60309;DHT22;50313;52.894;6.492;2023-08-21T12:02:27;27.00;1.00
60309;DHT22;50313;52.894;6.492;2023-08-21T12:05:00;27.00;1.00
60309;DHT22;50313;52.894;6.492;2023-08-21T12:07:26;27.00;1.00
60309;DHT22;50313;52.894;6.492;2023-08-21T12:09:52;26.90;1.00
60309;DHT22;50313;52.894;6.492;2023-08-21T12:12:18;27.00;1.00
60309;DHT22;50313;52.894;6.492;2023-08-21T12:14:44;27.20;1.00
60309;DHT22;50313;52.894;6.492;2023-08-21T12:17:09;26.90;1.00
60309;DHT22;50313;52.894;6.492;2023-08-21T12:19:35;26.90;1.00
60309;DHT22;50313;52.894;6.492;2023-08-21T12:22:02;26.90;1.00
60309;DHT22;50313;52.894;6.492;2023-08-21T12:24:28;27.00;1.00
60309;DHT22;50313;52.894;6.492;2023-08-21T12:26:54;27.10;1.00
60309;DHT22;50313;52.894;6.492;2023-08-21T12:29:20;27.20;1.00
60309;DHT22;50313;52.894;6.492;2023-08-21T12:31:46;27.40;1.00
60309;DHT22;50313;52.894;6.492;2023-08-21T12:34:12;27.20;1.00
60309;DHT22;50313;52.894;6.492;2023-08-21T12:36:38;27.30;1.00
60309;DHT22;50313;52.894;6.492;2023-08-21T12:39:05;27.40;1.00
60309;DHT22;50313;52.894;6.492;2023-08-21T12:41:32;27.60;1.00
60309;DHT22;50313;52.894;6.492;2023-08-21T12:44:01;27.50;1.00
60309;DHT22;50313;52.894;6.492;2023-08-21T12:46:29;27.80;1.00
60309;DHT22;50313;52.894;6.492;2023-08-21T12:48:56;27.80;1.00
60309;DHT22;50313;52.894;6.492;2023-08-21T12:51:22;27.80;1.00
60309;DHT22;50313;52.894;6.492;2023-08-21T12:53:48;28.00;1.00
60309;DHT22;50313;52.894;6.492;2023-08-21T12:56:14;28.10;1.00
60309;DHT22;50313;52.894;6.492;2023-08-21T12:58:40;28.20;1.00
60309;DHT22;50313;52.894;6.492;2023-08-21T13:01:05;28.10;1.00
60309;DHT22;50313;52.894;6.492;2023-08-21T13:03:33;28.10;1.00
60309;DHT22;50313;52.894;6.492;2023-08-21T13:05:59;28.10;1.00
60309;DHT22;50313;52.894;6.492;2023-08-21T13:08:25;28.00;1.00
60309;DHT22;50313;52.894;6.492;2023-08-21T13:10:52;28.20;1.00
60309;DHT22;50313;52.894;6.492;2023-08-21T13:13:18;28.30;1.00
60309;DHT22;50313;52.894;6.492;2023-08-21T13:15:44;28.20;1.00
60309;DHT22;50313;52.894;6.492;2023-08-21T13:18:10;28.10;1.00
60309;DHT22;50313;52.894;6.492;2023-08-21T13:20:37;28.10;1.00
60309;DHT22;50313;52.894;6.492;2023-08-21T13:23:03;28.00;1.00
60309;DHT22;50313;52.894;6.492;2023-08-21T13:25:29;28.30;1.00
60309;DHT22;50313;52.894;6.492;2023-08-21T13:27:55;28.30;1.00
60309;DHT22;50313;52.894;6.492;2023-08-21T13:30:21;28.30;1.00
60309;DHT22;50313;52.894;6.492;2023-08-21T13:32:48;28.20;1.00
60309;DHT22;50313;52.894;6.492;2023-08-21T13:35:14;28.30;1.00
60309;DHT22;50313;52.894;6.492;2023-08-21T13:37:40;28.20;1.00
60309;DHT22;50313;52.894;6.492;2023-08-21T13:40:06;27.80;1.00
60309;DHT22;50313;52.894;6.492;2023-08-21T13:42:38;27.30;1.00
60309;DHT22;50313;52.894;6.492;2023-08-21T13:45:09;26.90;1.00
60309;DHT22;50313;52.894;6.492;2023-08-21T13:47:37;26.90;1.00
60309;DHT22;50313;52.894;6.492;2023-08-21T13:50:04;27.10;1.00
60309;DHT22;50313;52.894;6.492;2023-08-21T13:52:30;27.30;1.00
60309;DHT22;50313;52.894;6.492;2023-08-21T13:54:56;27.70;1.00
60309;DHT22;50313;52.894;6.492;2023-08-21T13:57:22;28.30;1.00
60309;DHT22;50313;52.894;6.492;2023-08-21T13:59:48;28.50;1.00
60309;DHT22;50313;52.894;6.492;2023-08-21T14:02:14;28.70;1.00
60309;DHT22;50313;52.894;6.492;2023-08-21T14:04:39;29.00;1.00
60309;DHT22;50313;52.894;6.492;2023-08-21T14:07:05;29.40;1.00
60309;DHT22;50313;52.894;6.492;2023-08-21T14:09:31;29.70;1.00
60309;DHT22;50313;52.894;6.492;2023-08-21T14:11:57;29.70;1.00
60309;DHT22;50313;52.894;6.492;2023-08-21T14:14:23;29.20;1.00
60309;DHT22;50313;52.894;6.492;2023-08-21T14:16:48;28.60;1.00
60309;DHT22;50313;52.894;6.492;2023-08-21T14:19:14;29.00;1.00
60309;DHT22;50313;52.894;6.492;2023-08-21T14:21:40;29.40;1.00
60309;DHT22;50313;52.894;6.492;2023-08-21T14:24:06;29.70;1.00
60309;DHT22;50313;52.894;6.492;2023-08-21T14:26:33;29.60;1.00
60309;DHT22;50313;52.894;6.492;2023-08-21T14:28:59;29.60;1.00
60309;DHT22;50313;52.894;6.492;2023-08-21T14:31:25;29.80;1.00
60309;DHT22;50313;52.894;6.492;2023-08-21T14:33:50;29.40;1.00
60309;DHT22;50313;52.894;6.492;2023-08-21T14:36:16;28.80;1.00
60309;DHT22;50313;52.894;6.492;2023-08-21T14:38:43;28.50;1.00
60309;DHT22;50313;52.894;6.492;2023-08-21T14:41:08;28.90;1.00
60309;DHT22;50313;52.894;6.492;2023-08-21T14:43:34;28.20;1.00
60309;DHT22;50313;52.894;6.492;2023-08-21T14:46:00;29.00;1.00
60309;DHT22;50313;52.894;6.492;2023-08-21T14:48:26;29.50;1.00
60309;DHT22;50313;52.894;6.492;2023-08-21T14:50:52;29.90;1.00
60309;DHT22;50313;52.894;6.492;2023-08-21T14:53:18;30.20;1.00
60309;DHT22;50313;52.894;6.492;2023-08-21T14:55:44;30.10;1.00
60309;DHT22;50313;52.894;6.492;2023-08-21T14:58:09;30.30;1.00
60309;DHT22;50313;52.894;6.492;2023-08-21T15:00:36;31.30;1.00
60309;DHT22;50313;52.894;6.492;2023-08-21T15:03:02;32.30;1.00
60309;DHT22;50313;52.894;6.492;2023-08-21T15:05:28;32.10;1.00
60309;DHT22;50313;52.894;6.492;2023-08-21T15:07:55;32.90;1.00
60309;DHT22;50313;52.894;6.492;2023-08-21T15:10:21;33.40;1.00
60309;DHT22;50313;52.894;6.492;2023-08-21T15:12:47;33.30;1.00
60309;DHT22;50313;52.894;6.492;2023-08-21T15:15:13;32.60;1.00
60309;DHT22;50313;52.894;6.492;2023-08-21T15:17:38;32.80;1.00
60309;DHT22;50313;52.894;6.492;2023-08-21T15:20:05;33.50;1.00
60309;DHT22;50313;52.894;6.492;2023-08-21T15:22:32;33.60;1.00
60309;DHT22;50313;52.894;6.492;2023-08-21T15:24:58;33.90;1.00
60309;DHT22;50313;52.894;6.492;2023-08-21T15:27:24;35.00;1.00
60309;DHT22;50313;52.894;6.492;2023-08-21T15:29:50;34.60;1.00
60309;DHT22;50313;52.894;6.492;2023-08-21T15:32:16;34.50;1.00
60309;DHT22;50313;52.894;6.492;2023-08-21T15:34:42;34.10;1.00
60309;DHT22;50313;52.894;6.492;2023-08-21T15:37:08;33.70;1.00
60309;DHT22;50313;52.894;6.492;2023-08-21T15:39:34;33.10;1.00
60309;DHT22;50313;52.894;6.492;2023-08-21T15:42:00;33.50;1.00
60309;DHT22;50313;52.894;6.492;2023-08-21T15:44:26;34.20;1.00
60309;DHT22;50313;52.894;6.492;2023-08-21T15:46:52;33.80;1.00